Broken Arrow, OK (74012)

3:25 PM CDT on July 05, 2015 (GMT -0500)
Country Aire | | Change Station
CLOSE
Current Station
Personal Weather Station
Location: Broken Arrow, OK
Elevation: 697 ft
Nearby Weather Stations

Elev 697 ft 36.05 °N, 95.82 °W | Updated 8 seconds ago

Partly Cloudy
Partly Cloudy
93.0 °F
Feels Like 107 °F
N
3.0
Wind Variable Wind from South
Gusts 8.0 mph

Today
High -- | Low -- °F
--% Chance of Precip.
Yesterday
High -- | Low -- °F
Precip. -- in
6:11 AM 8:43 PM
Waning Gibbous, 82% visible
Pressure 29.94 in
Visibility 10.0 miles
Clouds Few 4300 ft
Few 7000 ft
Heat Index 107 °F
Dew Point 77 °F
Humidity 59%
Rainfall 0.00 in
Snow Depth Not available.
UV 7.8 out of 12
Pollen 1.30 out of 12
Air Quality Not available.
Flu Activity Not available.
METAR KRVS 051953Z 18012G17KT 10SM FEW043 FEW070 34/22 A2993 RMK AO2 SLP136 T03440222

More Conditions Fewer Conditions

Pressure 29.94 in
Visibility 10.0 miles
Clouds Few 4300 ft
Few 7000 ft
Heat Index 107 °F
Dew Point 77 °F
Humidity 59%
Rainfall 0.00 in
Snow Depth Not available.
UV 7.8 out of 12
Pollen 1.30 out of 12
Air Quality Not available.
Flu Activity Not available.
METAR KRVS 051953Z 18012G17KT 10SM FEW043 FEW070 34/22 A2993 RMK AO2 SLP136 T03440222

More Conditions Fewer Conditions

10-Day Weather Forecast

×

Almanac

Astronomy

Jul. 05, 2015 Rise Set
Actual Time
Civil Twilight
Nautical Twilight
Astronomical Twilight
Moon
Length of Visible Light
Length of Day
Tomorrow will be .
, % of the Moon is Illuminated

Today's Extremes

State Highs State Lows

Community

WunderPhotos

Upload Photos

1,835,375 photos uploaded!

WunderBlogs® & News

Nearby

Air Quality

  Air Quality AQ Index Pollutant
Not available.

Snow Depth

Station Depth Elevation

Earthquake Activity

City Distance Mag. Time & Date
Minimum magnitude displayed is 2.5.

Coastal Water Temperatures

Place Temperature

Stations

Nearby Weather Stations

Station Location Temp. Windchill Dew Point Humidity Wind Precip. Elev Updated Type